createdAt,value
2022-09-07T00:01:00.671Z,1.10
2022-09-07T00:03:29.276Z,0.60
2022-09-07T00:05:57.507Z,0.57
2022-09-07T00:08:27.942Z,0.40
2022-09-07T00:10:58.238Z,0.65
2022-09-07T00:13:29.935Z,0.57
2022-09-07T00:15:58.402Z,1.67
2022-09-07T00:18:26.795Z,0.60
2022-09-07T00:21:01.905Z,0.73
2022-09-07T00:23:31.530Z,0.52
2022-09-07T00:28:32.646Z,0.45
2022-09-07T00:33:28.998Z,0.45
2022-09-07T00:35:59.345Z,0.98
2022-09-07T00:38:27.425Z,0.70
2022-09-07T00:40:55.542Z,0.43
2022-09-07T00:43:33.949Z,0.82
2022-09-07T00:46:02.767Z,0.38
2022-09-07T00:48:36.605Z,0.60
2022-09-07T00:51:09.231Z,0.73
2022-09-07T00:53:41.321Z,0.80
2022-09-07T00:56:10.738Z,0.47
2022-09-07T00:58:43.346Z,0.57
2022-09-07T01:01:11.969Z,0.63
2022-09-07T01:03:44.794Z,0.80
2022-09-07T01:06:17.986Z,0.70
2022-09-07T01:08:49.708Z,0.60
2022-09-07T01:11:19.294Z,0.47
2022-09-07T01:16:31.565Z,0.45
2022-09-07T01:19:09.620Z,0.80
2022-09-07T01:21:55.391Z,0.77
2022-09-07T01:24:39.777Z,0.85
2022-09-07T01:27:50.220Z,0.70
2022-09-07T01:30:19.840Z,0.73
2022-09-07T01:35:32.682Z,0.57
2022-09-07T01:38:09.462Z,0.60
2022-09-07T01:40:46.050Z,0.70
2022-09-07T01:43:23.271Z,1.02
2022-09-07T01:45:53.741Z,0.80
2022-09-07T01:48:24.286Z,1.13
2022-09-07T01:50:57.139Z,0.70
2022-09-07T01:53:29.460Z,1.00
2022-09-07T01:56:03.931Z,1.05
2022-09-07T01:58:39.414Z,1.20
2022-09-07T02:01:10.850Z,1.23
2022-09-07T02:03:43.227Z,0.90
2022-09-07T02:06:16.653Z,1.38
2022-09-07T02:08:52.192Z,1.10
2022-09-07T02:11:28.414Z,1.23
2022-09-07T02:14:03.370Z,1.10
2022-09-07T02:16:33.411Z,1.27
2022-09-07T02:19:05.704Z,1.00
2022-09-07T02:21:38.543Z,1.63
2022-09-07T02:24:10.183Z,2.22
2022-09-07T02:26:41.894Z,1.40
2022-09-07T02:29:11.280Z,1.75
2022-09-07T02:31:39.416Z,1.30
2022-09-07T02:34:07.562Z,2.00
2022-09-07T02:36:41.265Z,1.27
2022-09-07T02:39:09.393Z,1.33
2022-09-07T02:41:41.014Z,1.85
2022-09-07T02:44:14.012Z,2.22
2022-09-07T02:47:04.195Z,1.80
2022-09-07T02:50:01.088Z,1.50
2022-09-07T02:52:43.653Z,1.48
2022-09-07T02:55:23.402Z,1.80
2022-09-07T02:58:02.435Z,2.05
2022-09-07T03:00:36.924Z,1.75
2022-09-07T03:03:17.610Z,1.30
2022-09-07T03:05:50.623Z,1.10
2022-09-07T03:08:22.353Z,1.48
2022-09-07T03:10:51.573Z,1.15
2022-09-07T03:13:24.047Z,1.40
2022-09-07T03:15:56.017Z,1.60
2022-09-07T03:18:25.219Z,0.88
2022-09-07T03:20:53.798Z,1.10
2022-09-07T03:23:21.920Z,0.77
2022-09-07T03:25:50.160Z,0.98
2022-09-07T03:28:18.480Z,0.90
2022-09-07T03:30:47.348Z,0.90
2022-09-07T03:33:17.742Z,1.00
2022-09-07T03:35:46.247Z,1.23
2022-09-07T03:38:14.348Z,0.77
2022-09-07T03:40:42.402Z,0.68
2022-09-07T03:43:10.445Z,0.95
2022-09-07T03:45:38.548Z,0.77
2022-09-07T03:48:06.693Z,0.70
2022-09-07T03:50:36.134Z,0.70
2022-09-07T03:53:04.207Z,1.08
2022-09-07T03:55:32.535Z,0.70
2022-09-07T03:58:00.651Z,0.80
2022-09-07T04:00:28.772Z,0.60
2022-09-07T04:02:56.920Z,0.98
2022-09-07T04:05:25.002Z,1.30
2022-09-07T04:07:54.473Z,1.38
2022-09-07T04:10:22.559Z,1.05
2022-09-07T04:12:50.632Z,1.00
2022-09-07T04:15:19.936Z,1.35
2022-09-07T04:17:48.231Z,1.10
2022-09-07T04:20:16.312Z,0.90
2022-09-07T04:22:44.292Z,0.88
2022-09-07T04:25:13.755Z,0.75
2022-09-07T04:27:42.119Z,1.70
2022-09-07T04:30:11.494Z,1.10
2022-09-07T04:32:39.542Z,1.42
2022-09-07T04:35:08.784Z,0.80
2022-09-07T04:37:36.976Z,0.90
2022-09-07T04:40:05.749Z,1.15
2022-09-07T04:42:35.216Z,0.93
2022-09-07T04:45:03.288Z,0.82
2022-09-07T04:47:31.568Z,1.45
2022-09-07T04:49:59.619Z,1.67
2022-09-07T04:52:27.649Z,2.42
2022-09-07T04:54:55.707Z,1.75
2022-09-07T04:57:26.227Z,1.40
2022-09-07T04:59:55.884Z,1.02
2022-09-07T05:04:52.259Z,0.80
2022-09-07T05:07:20.500Z,1.05
2022-09-07T05:09:48.792Z,1.25
2022-09-07T05:12:16.897Z,1.13
2022-09-07T05:14:45.028Z,1.35
2022-09-07T05:17:14.480Z,1.23
2022-09-07T05:19:42.638Z,0.93
2022-09-07T05:22:10.698Z,1.15
2022-09-07T05:24:38.738Z,1.45
2022-09-07T05:27:07.371Z,1.50
2022-09-07T05:32:24.918Z,1.30
2022-09-07T05:34:53.525Z,1.42
2022-09-07T05:37:21.689Z,1.40
2022-09-07T05:39:51.857Z,1.80
2022-09-07T05:42:20.000Z,2.00
2022-09-07T05:44:48.555Z,1.40
2022-09-07T05:47:16.654Z,1.60
2022-09-07T05:49:46.053Z,1.27
2022-09-07T05:52:14.383Z,1.17
2022-09-07T05:54:42.588Z,1.67
2022-09-07T05:57:12.280Z,1.25
2022-09-07T05:59:40.733Z,1.10
2022-09-07T06:02:11.835Z,1.60
2022-09-07T06:04:39.979Z,1.58
2022-09-07T06:07:27.700Z,1.55
2022-09-07T06:12:49.013Z,2.05
2022-09-07T06:15:17.842Z,1.67
2022-09-07T06:17:45.934Z,1.23
2022-09-07T06:20:14.088Z,1.20
2022-09-07T06:22:43.576Z,1.52
2022-09-07T06:25:11.690Z,1.52
2022-09-07T06:27:39.779Z,1.73
2022-09-07T06:30:08.839Z,1.10
2022-09-07T06:32:45.242Z,1.08
2022-09-07T06:35:14.498Z,1.75
2022-09-07T06:37:44.392Z,1.63
2022-09-07T06:40:13.116Z,1.10
2022-09-07T06:42:41.382Z,1.05
2022-09-07T06:45:11.942Z,1.58
2022-09-07T06:47:40.649Z,1.40
2022-09-07T06:50:10.349Z,1.02
2022-09-07T06:55:29.312Z,0.95
2022-09-07T06:57:57.294Z,1.23
2022-09-07T07:00:25.860Z,1.70
2022-09-07T07:02:54.004Z,0.90
2022-09-07T07:05:22.104Z,1.10
2022-09-07T07:07:50.183Z,1.40
2022-09-07T07:10:23.631Z,1.25
2022-09-07T07:12:57.830Z,1.10
2022-09-07T07:15:28.626Z,0.80
2022-09-07T07:18:02.548Z,1.75
2022-09-07T07:20:37.981Z,1.13
2022-09-07T07:23:06.438Z,0.63
2022-09-07T07:25:35.375Z,0.93
2022-09-07T07:30:56.604Z,0.98
2022-09-07T07:33:24.885Z,0.82
2022-09-07T07:35:52.992Z,1.02
2022-09-07T07:44:00.541Z,1.25
2022-09-07T07:46:30.261Z,0.75
2022-09-07T07:48:58.613Z,0.93
2022-09-07T07:51:27.037Z,0.85
2022-09-07T07:53:55.571Z,2.03
2022-09-07T07:56:24.399Z,1.30
2022-09-07T07:58:53.474Z,0.83
2022-09-07T08:01:23.083Z,0.93
2022-09-07T08:03:51.942Z,0.95
2022-09-07T08:06:22.082Z,1.67
2022-09-07T08:08:50.358Z,1.15
2022-09-07T08:11:20.622Z,1.30
2022-09-07T08:13:50.477Z,1.83
2022-09-07T08:16:19.451Z,1.05
2022-09-07T08:18:49.290Z,1.23
2022-09-07T08:21:17.846Z,0.85
2022-09-07T08:23:45.810Z,0.98
2022-09-07T08:26:14.076Z,1.08
2022-09-07T08:28:43.841Z,0.98
2022-09-07T08:31:13.828Z,0.93
2022-09-07T08:33:42.607Z,0.88
2022-09-07T08:36:14.690Z,1.38
2022-09-07T08:38:42.705Z,1.17
2022-09-07T08:41:42.303Z,0.95
2022-09-07T08:44:14.879Z,0.80
2022-09-07T08:46:47.055Z,0.75
2022-09-07T08:49:20.521Z,1.30
2022-09-07T08:51:56.134Z,0.73
2022-09-07T08:54:24.213Z,1.33
2022-09-07T08:59:48.117Z,0.70
2022-09-07T09:02:40.188Z,1.20
2022-09-07T09:05:17.201Z,1.00
2022-09-07T09:07:58.347Z,0.60
2022-09-07T09:10:37.750Z,0.88
2022-09-07T09:13:16.679Z,0.52
2022-09-07T09:15:57.062Z,0.43
2022-09-07T09:18:39.634Z,0.47
2022-09-07T09:21:14.582Z,0.60
2022-09-07T09:23:45.547Z,0.60
2022-09-07T09:26:16.499Z,0.52
2022-09-07T09:28:44.459Z,0.30
2022-09-07T09:31:19.284Z,0.38
2022-09-07T09:34:09.664Z,0.65
2022-09-07T09:36:44.341Z,0.60
2022-09-07T09:39:33.925Z,0.60
2022-09-07T09:42:16.957Z,0.95
2022-09-07T09:44:45.672Z,1.10
2022-09-07T09:47:31.363Z,0.68
2022-09-07T09:50:02.227Z,0.50
2022-09-07T09:52:43.622Z,1.05
2022-09-07T09:55:35.756Z,0.60
2022-09-07T10:06:21.790Z,0.40
2022-09-07T10:08:57.265Z,0.20
2022-09-07T10:14:20.556Z,0.22
2022-09-07T10:16:48.812Z,0.63
2022-09-07T10:19:34.792Z,0.30
2022-09-07T10:22:05.318Z,1.08
2022-09-07T10:24:38.815Z,0.47
2022-09-07T10:27:21.632Z,0.57
2022-09-07T10:29:50.962Z,1.25
2022-09-07T10:32:27.508Z,0.65
2022-09-07T10:35:09.039Z,0.77
2022-09-07T10:37:47.192Z,1.20
2022-09-07T10:40:25.017Z,0.50
2022-09-07T10:46:03.844Z,0.50
2022-09-07T10:48:41.181Z,0.52
2022-09-07T10:51:14.644Z,0.35
2022-09-07T10:54:30.097Z,0.57
2022-09-07T10:56:44.357Z,0.82
2022-09-07T11:02:31.667Z,0.30
2022-09-07T11:05:08.983Z,1.02
2022-09-07T11:07:55.286Z,0.60
2022-09-07T11:10:32.850Z,0.40
2022-09-07T11:13:04.785Z,0.75
2022-09-07T11:15:36.389Z,0.38
2022-09-07T11:18:09.453Z,0.75
2022-09-07T11:20:40.407Z,0.50
2022-09-07T11:23:16.988Z,0.60
2022-09-07T11:25:53.660Z,0.60
2022-09-07T11:28:26.347Z,1.33
2022-09-07T11:31:00.383Z,0.40
2022-09-07T11:33:35.298Z,0.50
2022-09-07T11:36:11.987Z,0.70
2022-09-07T11:38:46.192Z,0.57
2022-09-07T11:41:23.251Z,0.70
2022-09-07T11:43:59.281Z,0.57
2022-09-07T11:46:34.854Z,0.30
2022-09-07T11:49:07.165Z,0.68
2022-09-07T11:51:42.666Z,0.40
2022-09-07T11:54:33.157Z,0.30
2022-09-07T11:57:11.700Z,0.52
2022-09-07T11:59:51.874Z,0.50
2022-09-07T12:03:00.507Z,0.47
2022-09-07T12:05:48.145Z,0.45
2022-09-07T12:08:30.561Z,0.47
2022-09-07T12:11:23.066Z,0.93
2022-09-07T12:14:07.802Z,1.00
2022-09-07T12:16:54.014Z,0.80
2022-09-07T12:19:24.573Z,0.63
2022-09-07T12:21:59.473Z,0.40
2022-09-07T12:24:43.198Z,0.50
2022-09-07T12:27:37.287Z,0.30
2022-09-07T12:30:53.927Z,0.60
2022-09-07T12:33:27.929Z,0.45
2022-09-07T12:35:58.805Z,0.60
2022-09-07T12:38:59.291Z,0.22
2022-09-07T12:41:47.428Z,0.20
2022-09-07T12:44:18.541Z,0.45
2022-09-07T12:46:53.765Z,0.45
2022-09-07T12:49:55.925Z,0.60
2022-09-07T12:52:46.194Z,0.40
2022-09-07T12:55:28.961Z,0.60
2022-09-07T12:58:14.780Z,0.30
2022-09-07T13:00:59.107Z,0.35
2022-09-07T13:03:52.641Z,0.40
2022-09-07T13:09:33.120Z,0.40
2022-09-07T13:12:04.840Z,0.40
2022-09-07T13:14:38.815Z,0.30
2022-09-07T13:17:41.530Z,0.57
2022-09-07T13:20:23.499Z,0.30
2022-09-07T13:23:23.945Z,0.30
2022-09-07T13:26:01.346Z,0.38
2022-09-07T13:28:37.169Z,0.70
2022-09-07T13:31:29.913Z,0.50
2022-09-07T13:33:58.087Z,0.40
2022-09-07T13:36:39.634Z,0.20
2022-09-07T13:39:13.515Z,0.65
2022-09-07T13:41:47.103Z,0.30
2022-09-07T13:44:25.875Z,0.30
2022-09-07T13:47:09.890Z,0.43
2022-09-07T13:49:55.679Z,0.20
2022-09-07T13:52:33.186Z,0.40
2022-09-07T13:55:10.292Z,0.30
2022-09-07T13:57:49.209Z,0.20
2022-09-07T14:00:19.257Z,0.10
2022-09-07T14:02:56.708Z,0.15
2022-09-07T14:05:25.387Z,0.30
2022-09-07T14:07:53.526Z,0.43
2022-09-07T14:10:24.900Z,0.40
2022-09-07T14:12:54.749Z,0.40
2022-09-07T14:15:28.197Z,0.30
2022-09-07T14:18:05.292Z,0.50
2022-09-07T14:20:39.065Z,0.40
2022-09-07T14:23:13.252Z,0.38
2022-09-07T14:30:59.546Z,0.22
2022-09-07T14:33:29.714Z,0.38
2022-09-07T14:35:59.148Z,0.30
2022-09-07T14:41:20.238Z,0.50
2022-09-07T14:43:55.497Z,0.65
2022-09-07T14:46:25.826Z,0.50
2022-09-07T14:48:57.036Z,0.22
2022-09-07T14:51:35.095Z,0.75
2022-09-07T14:54:06.623Z,0.40
2022-09-07T14:56:36.638Z,0.77
2022-09-07T14:59:29.272Z,0.10
2022-09-07T15:02:15.723Z,0.40
2022-09-07T15:04:45.555Z,0.60
2022-09-07T15:07:29.418Z,0.32
2022-09-07T15:10:13.580Z,0.40
2022-09-07T15:12:43.220Z,0.50
2022-09-07T15:15:21.774Z,0.40
2022-09-07T15:17:50.095Z,0.52
2022-09-07T15:20:37.802Z,0.35
2022-09-07T15:23:09.484Z,0.40
2022-09-07T15:25:38.344Z,0.73
2022-09-07T15:28:07.010Z,0.38
2022-09-07T15:30:35.289Z,0.22
2022-09-07T15:33:03.850Z,0.28
2022-09-07T15:35:31.772Z,0.57
2022-09-07T15:38:02.470Z,0.52
2022-09-07T15:40:51.303Z,0.38
2022-09-07T15:43:28.480Z,0.45
2022-09-07T15:45:56.805Z,0.35
2022-09-07T15:48:25.868Z,0.40
2022-09-07T15:51:03.192Z,0.28
2022-09-07T15:56:22.346Z,0.75
2022-09-07T15:58:53.184Z,0.35
2022-09-07T16:04:14.378Z,0.33
2022-09-07T16:06:42.594Z,0.22
2022-09-07T16:09:11.831Z,0.20
2022-09-07T16:11:40.257Z,0.45
2022-09-07T16:14:11.542Z,0.30
2022-09-07T16:19:27.343Z,0.40
2022-09-07T16:21:57.550Z,0.30
2022-09-07T16:24:28.261Z,0.20
2022-09-07T16:26:56.393Z,0.17
2022-09-07T16:29:24.840Z,0.20
2022-09-07T16:34:41.005Z,0.20
2022-09-07T16:37:08.887Z,0.55
2022-09-07T16:39:38.244Z,0.30
2022-09-07T16:44:34.998Z,0.30
2022-09-07T16:47:04.274Z,0.50
2022-09-07T16:49:32.134Z,0.32
2022-09-07T16:52:00.140Z,0.63
2022-09-07T16:54:28.245Z,0.40
2022-09-07T16:56:57.978Z,0.40
2022-09-07T16:59:26.727Z,0.20
2022-09-07T17:01:55.339Z,0.30
2022-09-07T17:04:23.683Z,0.40
2022-09-07T17:06:54.386Z,0.20
2022-09-07T17:09:26.341Z,0.50
2022-09-07T17:11:54.330Z,0.20
2022-09-07T17:14:23.621Z,0.20
2022-09-07T17:16:51.720Z,0.10
2022-09-07T17:19:29.438Z,0.40
2022-09-07T17:21:59.562Z,0.40
2022-09-07T17:24:27.593Z,0.50
2022-09-07T17:26:55.682Z,0.40
2022-09-07T17:29:24.971Z,0.30
2022-09-07T17:34:40.867Z,0.30
2022-09-07T17:37:09.375Z,0.40
2022-09-07T17:39:38.634Z,0.40
2022-09-07T17:42:07.524Z,0.30
2022-09-07T17:44:38.487Z,0.47
2022-09-07T17:47:06.893Z,0.30
2022-09-07T17:49:36.282Z,0.70
2022-09-07T17:52:05.141Z,0.43
2022-09-07T17:54:33.051Z,0.70
2022-09-07T17:57:01.189Z,0.30
2022-09-07T18:02:18.994Z,0.40
2022-09-07T18:04:47.182Z,0.50
2022-09-07T18:07:15.692Z,0.50
2022-09-07T18:09:43.665Z,0.30
2022-09-07T18:12:11.644Z,0.30
2022-09-07T18:14:39.646Z,0.30
2022-09-07T18:17:07.717Z,0.38
2022-09-07T18:19:38.382Z,0.50
2022-09-07T18:22:06.513Z,0.30
2022-09-07T18:24:36.955Z,0.50
2022-09-07T18:27:05.567Z,0.45
2022-09-07T18:29:34.552Z,0.88
2022-09-07T18:32:08.078Z,0.22
2022-09-07T18:34:41.280Z,0.60
2022-09-07T18:37:11.942Z,0.93
2022-09-07T18:39:40.874Z,0.47
2022-09-07T18:42:09.086Z,0.52
2022-09-07T18:47:28.951Z,0.43
2022-09-07T18:49:59.083Z,0.55
2022-09-07T18:55:16.401Z,0.43
2022-09-07T18:57:44.948Z,0.47
2022-09-07T19:00:14.382Z,0.70
2022-09-07T19:02:42.692Z,0.57
2022-09-07T19:08:03.139Z,0.68
2022-09-07T19:10:33.566Z,0.70
2022-09-07T19:13:01.569Z,0.90
2022-09-07T19:15:29.644Z,0.57
2022-09-07T19:17:58.269Z,0.55
2022-09-07T19:20:29.195Z,0.67
2022-09-07T19:22:58.220Z,0.47
2022-09-07T19:25:26.872Z,0.60
2022-09-07T19:27:54.838Z,0.85
2022-09-07T19:30:23.646Z,0.68
2022-09-07T19:32:51.840Z,0.50
2022-09-07T19:35:19.709Z,0.50
2022-09-07T19:37:50.548Z,0.32
2022-09-07T19:40:19.362Z,0.70
2022-09-07T19:42:47.563Z,0.70
2022-09-07T19:45:15.756Z,1.73
2022-09-07T19:47:44.188Z,0.98
2022-09-07T19:50:12.457Z,1.05
2022-09-07T19:52:40.442Z,0.43
2022-09-07T19:55:10.518Z,0.90
2022-09-07T19:57:38.394Z,0.93
2022-09-07T20:00:07.789Z,0.55
2022-09-07T20:02:39.731Z,0.60
2022-09-07T20:05:08.312Z,1.08
2022-09-07T20:07:36.339Z,0.80
2022-09-07T20:10:04.449Z,0.80
2022-09-07T20:12:33.832Z,0.47
2022-09-07T20:15:01.812Z,1.05
2022-09-07T20:17:35.055Z,0.70
2022-09-07T20:20:04.534Z,0.70
2022-09-07T20:22:32.724Z,0.80
2022-09-07T20:25:00.665Z,0.50
2022-09-07T20:27:28.688Z,0.63
2022-09-07T20:29:58.075Z,0.50
2022-09-07T20:32:27.809Z,0.60
2022-09-07T20:37:26.762Z,0.38
2022-09-07T20:39:55.057Z,0.55
2022-09-07T20:42:23.074Z,0.75
2022-09-07T20:44:50.974Z,0.52
2022-09-07T20:47:20.201Z,0.60
2022-09-07T20:49:48.391Z,0.65
2022-09-07T20:52:16.332Z,0.60
2022-09-07T20:54:44.441Z,0.80
2022-09-07T20:57:12.315Z,0.70
2022-09-07T20:59:40.170Z,0.60
2022-09-07T21:02:09.913Z,0.50
2022-09-07T21:04:39.237Z,0.38
2022-09-07T21:07:07.182Z,0.65
2022-09-07T21:09:35.203Z,0.57
2022-09-07T21:12:03.625Z,0.77
2022-09-07T21:14:31.509Z,0.60
2022-09-07T21:16:59.398Z,0.50
2022-09-07T21:19:27.401Z,0.45
2022-09-07T21:21:56.689Z,0.60
2022-09-07T21:24:24.762Z,0.50
2022-09-07T21:26:52.942Z,0.50
2022-09-07T21:29:22.855Z,0.52
2022-09-07T21:31:53.015Z,0.70
2022-09-07T21:34:21.680Z,0.75
2022-09-07T21:36:50.166Z,0.52
2022-09-07T21:39:20.700Z,0.75
2022-09-07T21:41:48.578Z,0.50
2022-09-07T21:44:17.210Z,0.63
2022-09-07T21:46:45.816Z,0.57
2022-09-07T21:49:13.974Z,0.75
2022-09-07T21:51:42.053Z,0.47
2022-09-07T21:54:10.223Z,0.60
2022-09-07T21:56:44.414Z,0.47
2022-09-07T21:59:14.703Z,0.80
2022-09-07T22:01:42.680Z,0.50
2022-09-07T22:04:10.623Z,0.40
2022-09-07T22:06:39.798Z,0.50
2022-09-07T22:09:08.204Z,0.60
2022-09-07T22:11:36.120Z,0.60
2022-09-07T22:14:06.192Z,1.02
2022-09-07T22:16:35.938Z,0.70
2022-09-07T22:19:04.362Z,0.60
2022-09-07T22:21:32.359Z,0.35
2022-09-07T22:24:01.804Z,0.75
2022-09-07T22:26:31.978Z,0.45
2022-09-07T22:29:00.489Z,1.00
2022-09-07T22:31:31.960Z,0.60
2022-09-07T22:34:01.646Z,0.55
2022-09-07T22:39:00.636Z,0.50
2022-09-07T22:41:30.727Z,0.55
2022-09-07T22:43:58.716Z,0.70
2022-09-07T22:46:28.697Z,0.70
2022-09-07T22:48:59.121Z,0.80
2022-09-07T22:51:28.158Z,0.70
2022-09-07T22:53:56.741Z,0.73
2022-09-07T22:56:28.298Z,1.10
2022-09-07T22:58:57.976Z,0.70
2022-09-07T23:03:55.333Z,0.57
2022-09-07T23:06:26.099Z,0.80
2022-09-07T23:08:55.608Z,0.82
2022-09-07T23:11:24.730Z,0.70
2022-09-07T23:13:53.788Z,0.77
2022-09-07T23:16:22.885Z,0.35
2022-09-07T23:18:51.758Z,0.50
2022-09-07T23:21:20.352Z,0.43
2022-09-07T23:23:54.088Z,0.55
2022-09-07T23:26:23.946Z,0.30
2022-09-07T23:28:53.431Z,0.55
2022-09-07T23:31:22.293Z,0.63
2022-09-07T23:33:50.670Z,0.40
2022-09-07T23:36:20.161Z,0.50
2022-09-07T23:38:48.307Z,0.55
2022-09-07T23:41:18.347Z,0.55
2022-09-07T23:43:46.655Z,0.32
2022-09-07T23:46:15.124Z,0.60
2022-09-07T23:48:44.051Z,0.43
2022-09-07T23:51:12.879Z,0.80
2022-09-07T23:53:41.289Z,0.53
2022-09-07T23:56:09.762Z,0.55
2022-09-07T23:58:39.441Z,0.55
